Details for FedEx at KOAK




Go Back


Latest METAR
Local Time

KOAK 180353Z COR 27008KT 10SM FEW010 12/10 A3005 RMK AO2 SLP176 T01170100

17/02/2018, 20:35:03

Description
Results
FedEx Logo
Number of Pilots based at KOAK
0 Pilots Based here
Number of FedEx Flights Departed from KOAK
0 Flights Departed
Number of FedEx Flights Arrived at KOAK
0 Flights Arrived
Number of FedEx Schedules Departing from KOAK
116 Schedules
Number of FedEx Schedules Arriving at KOAK
120 Schedules
Number of FedEx Schedules Departing from KOAK availible today
13 Schedules Today
Number of FedEx Schedules Arriving at KOAK availible today
12 Schedules Today
Average Landing Rate at KOAK
-370 fpm
FedEx Average Landing Rate at KOAK
0 fpm
Total Fuel Purchased at KOAK by FedEx
0.00 kgs / 0.00 lbs

Pilots Based at KOAK


Pilot ID
Pilot Name
Pilot Rank
No. of Flights
No. of Flying Hours
There are no pilots assigned to this hub!   Will you be the first?
Content